Home > Products > Valid Products > TAF

000
FTUS43 KDVN 050520
TAFMLI
TAF
KMLI 050520Z 0506/0606 VRB03KT P6SM BKN250
     FM051600 10007KT P6SM BKN100
     FM060100 09004KT P6SM BKN120=



000
FTUS43 KDVN 050520
TAFDBQ
TAF
KDBQ 050520Z 0506/0606 VRB03KT P6SM SCT250
     FM051600 13005KT P6SM BKN250
     FM060100 10003KT P6SM SCT250=



000
FTUS43 KDVN 050520
TAFBRL
TAF
KBRL 050520Z 0506/0606 VRB03KT P6SM SCT050 BKN100
     FM051500 10006KT P6SM SCT040 OVC070
     FM060100 07005KT P6SM BKN080=



000
FTUS43 KDVN 050520
TAFCID
TAF
KCID 050520Z 0506/0606 VRB03KT P6SM SCT050 SCT250
     FM051600 11006KT P6SM SCT100 BKN200
     FM060100 09004KT P6SM BKN200=



000
FTUS43 KDVN 042328
TAFDBQ
TAF
KDBQ 042328Z 0500/0524 VRB03KT P6SM SCT250
     FM051600 12006KT P6SM BKN200=



000
FTUS43 KDVN 042328
TAFMLI
TAF
KMLI 042328Z 0500/0524 VRB03KT P6SM BKN250
     FM051600 12007KT P6SM BKN150=



000
FTUS43 KDVN 042328
TAFBRL
TAF
KBRL 042328Z 0500/0524 VRB03KT P6SM BKN120
     FM051600 11008KT P6SM SCT040 OVC080=



000
FTUS43 KDVN 042328
TAFCID
TAF
KCID 042328Z 0500/0524 VRB03KT P6SM SCT250
     FM051600 11006KT P6SM BKN200=



000
FTUS43 KDVN 041728
TAFMLI
TAF
KMLI 041728Z 0418/0518 29008KT P6SM BKN200
     FM050000 VRB03KT P6SM SCT250
     FM051600 12007KT P6SM BKN150=



000
FTUS43 KDVN 041728
TAFBRL
TAF
KBRL 041728Z 0418/0518 VRB04KT P6SM BKN100
     FM051500 11007KT P6SM SCT040 OVC080=



000
FTUS43 KDVN 041728
TAFCID
TAF
KCID 041728Z 0418/0518 30007KT P6SM BKN200
     FM050000 VRB03KT P6SM SCT250
     FM051500 11006KT P6SM BKN200=



000
FTUS43 KDVN 041728
TAFDBQ
TAF
KDBQ 041728Z 0418/0518 32007KT P6SM SCT200
     FM050000 VRB03KT P6SM SCT250
     FM051500 12006KT P6SM BKN200=



000
FTUS43 KDVN 041728
TAFMLI
TAF
KMLI 041728Z 0418/0518 29008KT P6SM BKN200
     FM050000 VRB03KT P6SM SCT250
     FM051600 12007KT P6SM BKN150=



000
FTUS43 KDVN 041728
TAFCID
TAF
KCID 041728Z 0418/0518 30007KT P6SM BKN200
     FM050000 VRB03KT P6SM SCT250
     FM051500 11006KT P6SM BKN200=



000
FTUS43 KDVN 041728
TAFDBQ
TAF
KDBQ 041728Z 0418/0518 32007KT P6SM SCT200
     FM050000 VRB03KT P6SM SCT250
     FM051500 12006KT P6SM BKN200=



000
FTUS43 KDVN 041126
TAFDBQ
TAF
KDBQ 041126Z 0412/0512 VRB04KT P6SM SCT250=



000
FTUS43 KDVN 041126
TAFCID
TAF
KCID 041126Z 0412/0512 VRB04KT P6SM BKN250=



000
FTUS43 KDVN 041126
TAFMLI
TAF
KMLI 041126Z 0412/0512 VRB04KT P6SM SCT250=



000
FTUS43 KDVN 041126
TAFBRL
TAF
KBRL 041126Z 0412/0512 VRB04KT P6SM BKN250=



000
FTUS43 KDVN 041126
TAFMLI
TAF
KMLI 041126Z 0412/0512 VRB04KT P6SM SCT250=



000
FTUS43 KDVN 041126
TAFBRL
TAF
KBRL 041126Z 0412/0512 VRB04KT P6SM BKN250=



000
FTUS43 KDVN 041126
TAFDBQ
TAF
KDBQ 041126Z 0412/0512 VRB04KT P6SM SCT250=



000
FTUS43 KDVN 041126
TAFCID
TAF
KCID 041126Z 0412/0512 VRB04KT P6SM BKN250=



000
FTUS43 KDVN 040520
TAFMLI
TAF
KMLI 040520Z 0406/0506 VRB03KT P6SM SKC
     FM041500 29006KT P6SM SCT250
     FM050100 VRB03KT P6SM BKN250=



000
FTUS43 KDVN 040520
TAFCID
TAF
KCID 040520Z 0406/0506 VRB03KT P6SM SKC
     FM041500 27005KT P6SM SCT250
     FM050100 15003KT P6SM BKN250=



000
FTUS43 KDVN 040520
TAFCID
TAF
KCID 040520Z 0406/0506 VRB03KT P6SM SKC
     FM041500 27005KT P6SM SCT250
     FM050100 15003KT P6SM BKN250=



000
FTUS43 KDVN 040520
TAFMLI
TAF
KMLI 040520Z 0406/0506 VRB03KT P6SM SKC
     FM041500 29006KT P6SM SCT250
     FM050100 VRB03KT P6SM BKN250=



000
FTUS43 KDVN 040520
TAFBRL
TAF
KBRL 040520Z 0406/0506 VRB03KT P6SM SCT250
     FM041500 24004KT P6SM BKN200
     FM050100 15003KT P6SM BKN120=



000
FTUS43 KDVN 040520
TAFDBQ
TAF
KDBQ 040520Z 0406/0506 VRB03KT P6SM SKC
     FM041500 30006KT P6SM FEW060
     FM050100 26003KT P6SM SCT250=



000
FTUS43 KDVN 040520
TAFDBQ
TAF
KDBQ 040520Z 0406/0506 VRB03KT P6SM SKC
     FM041500 30006KT P6SM FEW060
     FM050100 26003KT P6SM SCT250=



000
FTUS43 KDVN 040520
TAFBRL
TAF
KBRL 040520Z 0406/0506 VRB03KT P6SM SCT250
     FM041500 24004KT P6SM BKN200
     FM050100 15003KT P6SM BKN120=



000
FTUS43 KDVN 032333
TAFDBQ
TAF
KDBQ 032333Z 0400/0424 29012KT P6SM SKC
     FM040300 27003KT P6SM SKC
     FM041600 30010KT P6SM FEW060=



000
FTUS43 KDVN 032333
TAFBRL
TAF
KBRL 032333Z 0400/0424 33006KT P6SM SCT250
     FM040700 VRB03KT P6SM SCT120
     FM041600 15005KT P6SM BKN200=



000
FTUS43 KDVN 032333
TAFMLI
TAF
KMLI 032333Z 0400/0424 28009KT P6SM SKC
     FM040300 VRB03KT P6SM SKC
     FM041600 29007KT P6SM SCT250=



000
FTUS43 KDVN 032333
TAFCID
TAF
KCID 032333Z 0400/0424 31008KT P6SM SKC
     FM040300 27003KT P6SM SKC
     FM041600 31007KT P6SM SCT250=



000
FTUS43 KDVN 032333
TAFBRL
TAF
KBRL 032333Z 0400/0424 33006KT P6SM SCT250
     FM040700 VRB03KT P6SM SCT120
     FM041600 15005KT P6SM BKN200=



000
FTUS43 KDVN 032333
TAFDBQ
TAF
KDBQ 032333Z 0400/0424 29012KT P6SM SKC
     FM040300 27003KT P6SM SKC
     FM041600 30010KT P6SM FEW060=



000
FTUS43 KDVN 032333
TAFMLI
TAF
KMLI 032333Z 0400/0424 28009KT P6SM SKC
     FM040300 VRB03KT P6SM SKC
     FM041600 29007KT P6SM SCT250=



000
FTUS43 KDVN 032333
TAFCID
TAF
KCID 032333Z 0400/0424 31008KT P6SM SKC
     FM040300 27003KT P6SM SKC
     FM041600 31007KT P6SM SCT250=



000
FTUS43 KDVN 031730
TAFCID
TAF
KCID 031730Z 0318/0418 31009KT P6SM SKC
     FM040100 29004KT P6SM FEW250
     FM041600 31007KT P6SM SCT250=



000
FTUS43 KDVN 031730
TAFDBQ
TAF
KDBQ 031730Z 0318/0418 30010KT P6SM FEW060
     FM040100 27004KT P6SM SKC
     FM041600 30008KT P6SM SCT250=



000
FTUS43 KDVN 031730
TAFMLI
TAF
KMLI 031730Z 0318/0418 32010KT P6SM SKC
     FM040100 29004KT P6SM FEW250
     FM041600 28008KT P6SM SCT250=



000
FTUS43 KDVN 031730
TAFBRL
TAF
KBRL 031730Z 0318/0418 32008KT P6SM SCT060 SCT120
     FM040100 30004KT P6SM SCT120=



000
FTUS43 KDVN 031129
TAFCID
TAF
KCID 031129Z 0312/0412 33006KT P6SM SKC
     FM031700 31011G18KT P6SM FEW060
     FM040100 30004KT P6SM SKC=



000
FTUS43 KDVN 031129
TAFBRL
TAF
KBRL 031129Z 0312/0412 34006KT P6SM SCT050
     FM031700 32010G17KT P6SM SCT060
     FM040100 30004KT P6SM SCT120=



000
FTUS43 KDVN 031129
TAFMLI
TAF
KMLI 031129Z 0312/0412 33006KT P6SM SCT050
     FM031700 32011G18KT P6SM FEW060
     FM040100 30004KT P6SM SKC=



000
FTUS43 KDVN 031129
TAFDBQ
TAF
KDBQ 031129Z 0312/0412 34006KT P6SM SKC
     FM031700 32011G18KT P6SM FEW060
     FM040100 30004KT P6SM SKC=



000
FTUS43 KDVN 030520
TAFDBQ
TAF
KDBQ 030520Z 0306/0406 32008KT P6SM SCT050
     FM031700 30012KT P6SM SCT060
     FM040100 30006KT P6SM SKC=



000
FTUS43 KDVN 030520
TAFDBQ
TAF
KDBQ 030520Z 0306/0406 32008KT P6SM SCT050
     FM031700 30012KT P6SM SCT060
     FM040100 30006KT P6SM SKC=



000
FTUS43 KDVN 030520
TAFBRL
TAF
KBRL 030520Z 0306/0406 25004KT P6SM FEW040 SCT250
     FM030800 27005KT P6SM SCT250
     FM031200 34006KT P6SM SKC
     FM031900 33008KT P6SM SCT060
     FM040100 34004KT P6SM SKC=



000
FTUS43 KDVN 030520
TAFMLI
TAF
KMLI 030520Z 0306/0406 26010KT P6SM SCT040
     FM030700 30007KT P6SM SCT250
     FM031200 33007KT P6SM SKC
     FM031900 30010KT P6SM SCT060
     FM040100 29004KT P6SM SKC=



000
FTUS43 KDVN 030520
TAFCID
TAF
KCID 030520Z 0306/0406 31006KT P6SM FEW250
     FM031400 33007KT P6SM SKC
     FM031900 30009KT P6SM SCT060
     FM040100 30004KT P6SM SKC=



000
FTUS43 KDVN 030520
TAFCID
TAF
KCID 030520Z 0306/0406 31006KT P6SM FEW250
     FM031400 33007KT P6SM SKC
     FM031900 30009KT P6SM SCT060
     FM040100 30004KT P6SM SKC=



000
FTUS43 KDVN 030520
TAFBRL
TAF
KBRL 030520Z 0306/0406 25004KT P6SM FEW040 SCT250
     FM030800 27005KT P6SM SCT250
     FM031200 34006KT P6SM SKC
     FM031900 33008KT P6SM SCT060
     FM040100 34004KT P6SM SKC=



000
FTUS43 KDVN 030520
TAFMLI
TAF
KMLI 030520Z 0306/0406 26010KT P6SM SCT040
     FM030700 30007KT P6SM SCT250
     FM031200 33007KT P6SM SKC
     FM031900 30010KT P6SM SCT060
     FM040100 29004KT P6SM SKC=



000
FTUS43 KDVN 030327 AAA
TAFCID
TAF AMD
KCID 030327Z 0303/0324 27012KT P6SM FEW040
     FM030400 30008KT P6SM FEW100
     FM030700 33006KT P6SM SKC
     FM031600 30010KT P6SM SCT060=



000
FTUS43 KDVN 030204 AAA
TAFMLI
TAF AMD
KMLI 030204Z 0302/0324 25011KT P6SM VCTS FEW040CB SCT150 SCT250
      TEMPO 0302/0303 VRB30G45KT 2SM TSRA OVC040CB
     FM030400 28008KT P6SM SCT150
     FM030700 33005KT P6SM SKC
     FM031600 30008KT P6SM SCT060=



000
FTUS43 KDVN 030204 AAA
TAFMLI
TAF AMD
KMLI 030204Z 0302/0324 25011KT P6SM VCTS FEW040CB SCT150 SCT250
      TEMPO 0302/0303 VRB30G45KT 2SM TSRA OVC040CB
     FM030400 28008KT P6SM SCT150
     FM030700 33005KT P6SM SKC
     FM031600 30008KT P6SM SCT060=



000
FTUS43 KDVN 030058 AAA
TAFDBQ
TAF AMD
KDBQ 030058Z 0301/0324 27011KT P6SM SCT150
     FM030300 30011KT P6SM FEW150
     FM030500 33007KT P6SM SKC
     FM031500 30009KT P6SM SCT060=



000
FTUS43 KDVN 022331
TAFMLI
TAF
KMLI 022331Z 0300/0324 25012G18KT P6SM FEW150
     FM030100 25011KT P6SM VCTS FEW040CB SCT150 SCT250
     FM030400 28008KT P6SM SCT150
     FM030700 33005KT P6SM SKC
     FM031600 30008KT P6SM SCT060=



000
FTUS43 KDVN 022331
TAFDBQ
TAF
KDBQ 022331Z 0300/0324 28015G22KT P6SM SCT150
     FM030100 30011KT P6SM FEW150
     FM030500 33007KT P6SM SKC
     FM031500 30009KT P6SM SCT060=



000
FTUS43 KDVN 022331
TAFCID
TAF
KCID 022331Z 0300/0324 27012KT P6SM FEW040
     FM030130 30008KT P6SM FEW100
     FM030700 33006KT P6SM SKC
     FM031600 30010KT P6SM SCT060=



000
FTUS43 KDVN 022331
TAFBRL
TAF
KBRL 022331Z 0300/0324 24014G19KT P6SM SCT040 SCT250
     FM030100 24011KT P6SM VCTS FEW040CB BKN250
     FM030400 26008KT P6SM SCT150 SCT250
     FM030700 33006KT P6SM SKC
     FM031700 33008KT P6SM SCT060=



000
FTUS43 KDVN 022047 AAA
TAFDBQ
TAF AMD
KDBQ 022047Z 0221/0318 25019G27KT P6SM SCT040
     FM030000 25014KT P6SM SCT040
      TEMPO 0300/0302 3SM TSRA BKN035CB
     FM030200 32009KT P6SM SCT060
     FM030400 34006KT P6SM SKC=



000
FTUS43 KDVN 021834 AAA
TAFMLI
TAF AMD
KMLI 021834Z 0219/0318 23012G22KT P6SM SCT080
     FM030000 24011KT P6SM SCT070
      TEMPO 0301/0304 3SM TSRA BKN035CB
     FM030400 29005KT P6SM BKN050
     FM030700 33005KT P6SM SKC=



000
FTUS43 KDVN 021720
TAFDBQ
TAF
KDBQ 021720Z 0218/0318 24013G20KT P6SM FEW100
     FM030000 24012KT P6SM SCT050
      TEMPO 0300/0302 3SM TSRA BKN035CB
     FM030200 32009KT P6SM SCT060
     FM030400 34006KT P6SM SKC=



000
FTUS43 KDVN 021720
TAFBRL
TAF
KBRL 021720Z 0218/0318 22012G20KT P6SM SCT090
     FM030000 23010KT P6SM SCT050 PROB30 0303/0306 4SM TSRA BKN050CB
     FM030800 34006KT P6SM SKC=



000
FTUS43 KDVN 021720
TAFDBQ
TAF
KDBQ 021720Z 0218/0318 24013G20KT P6SM FEW100
     FM030000 24012KT P6SM SCT050
      TEMPO 0300/0302 3SM TSRA BKN035CB
     FM030200 32009KT P6SM SCT060
     FM030400 34006KT P6SM SKC=



000
FTUS43 KDVN 021720
TAFBRL
TAF
KBRL 021720Z 0218/0318 22012G20KT P6SM SCT090
     FM030000 23010KT P6SM SCT050 PROB30 0303/0306 4SM TSRA BKN050CB
     FM030800 34006KT P6SM SKC=



000
FTUS43 KDVN 021720
TAFMLI
TAF
KMLI 021720Z 0218/0318 23012G22KT P6SM VCSH SCT090
     FM030000 24011KT P6SM SCT050
      TEMPO 0301/0304 3SM TSRA BKN035CB
     FM030400 29005KT P6SM BKN050
     FM030700 33005KT P6SM SKC=



000
FTUS43 KDVN 021720
TAFMLI
TAF
KMLI 021720Z 0218/0318 23012G22KT P6SM VCSH SCT090
     FM030000 24011KT P6SM SCT050
      TEMPO 0301/0304 3SM TSRA BKN035CB
     FM030400 29005KT P6SM BKN050
     FM030700 33005KT P6SM SKC=



000
FTUS43 KDVN 021720
TAFCID
TAF
KCID 021720Z 0218/0318 23015G25KT P6SM SCT090
     FM030000 24012G20KT P6SM SCT050
      TEMPO 0300/0303 3SM TSRA BKN040CB
     FM030300 31009KT P6SM SKC
     FM030700 34005KT P6SM SKC=



000
FTUS43 KDVN 021720
TAFCID
TAF
KCID 021720Z 0218/0318 23015G25KT P6SM SCT090
     FM030000 24012G20KT P6SM SCT050
      TEMPO 0300/0303 3SM TSRA BKN040CB
     FM030300 31009KT P6SM SKC
     FM030700 34005KT P6SM SKC=



000
FTUS43 KDVN 021559 AAD
TAFCID
TAF AMD
KCID 021559Z 0216/0312 21012KT P6SM SCT080
     FM021700 22015G25KT P6SM SCT200 PROB30 0301/0302 4SM TSRA
      BKN050CB
     FM030200 25011KT P6SM SKC
     FM030600 30005KT P6SM SKC=



000
FTUS43 KDVN 021445 AAB
TAFMLI
TAF AMD
KMLI 021445Z 0215/0312 22010KT P6SM VCSH SCT070
     FM021530 24012G20KT P6SM SCT080
     FM021700 24015G25KT P6SM SKC
     FM030000 23011KT P6SM SCT050 PROB30 0300/0304 4SM TSRA BKN050CB
     FM030700 30005KT P6SM SKC=



000
FTUS43 KDVN 021445 AAB
TAFMLI
TAF AMD
KMLI 021445Z 0215/0312 22010KT P6SM VCSH SCT070
     FM021530 24012G20KT P6SM SCT080
     FM021700 24015G25KT P6SM SKC
     FM030000 23011KT P6SM SCT050 PROB30 0300/0304 4SM TSRA BKN050CB
     FM030700 30005KT P6SM SKC=



000
FTUS43 KDVN 021407 AAA
TAFBRL
TAF AMD
KBRL 021407Z 0214/0312 21010KT P6SM SCT080
     FM021530 22012G20KT P6SM BKN080
     FM021700 23015G25KT P6SM SCT080
     FM030000 22010KT P6SM SCT050 PROB30 0300/0304 4SM TSRA BKN050CB
     FM030800 32005KT P6SM SKC=



000
FTUS43 KDVN 021405 AAA
TAFMLI
TAF AMD
KMLI 021405Z 0214/0312 22010KT P6SM SCT070
     FM021530 24012G20KT P6SM SCT080
     FM021700 24015G25KT P6SM SKC
     FM030000 23011KT P6SM SCT050 PROB30 0300/0304 4SM TSRA BKN050CB
     FM030700 30005KT P6SM SKC=



000
FTUS43 KDVN 021404 AAA
TAFDBQ
TAF AMD
KDBQ 021404Z 0214/0312 24015G24KT P6SM SCT060 PROB30 0223/0302 4SM
      TSRA BKN050CB
     FM030200 24011KT P6SM SKC
     FM030600 30005KT P6SM SKC=



000
FTUS43 KDVN 021403 AAC
TAFCID
TAF AMD
KCID 021403Z 0214/0312 21010KT P6SM SCT200
     FM021530 22015G25KT P6SM SCT200 PROB30 0223/0302 4SM TSRA
      BKN050CB
     FM030200 25011KT P6SM SKC
     FM030600 30005KT P6SM SKC=



000
FTUS43 KDVN 021247 AAB
TAFCID
TAF AMD
KCID 021247Z 0213/0312 21009KT P6SM VCTS SCT080CB
      TEMPO 0213/0215 4SM TSRA OVC040CB
     FM021500 24018G25KT P6SM SCT080 PROB30 0222/0302 4SM TSRA
      BKN050CB
     FM030200 25011KT P6SM SKC
     FM030600 30005KT P6SM SKC=



000
FTUS43 KDVN 021247 AAB
TAFCID
TAF AMD
KCID 021247Z 0213/0312 21009KT P6SM VCTS SCT080CB
      TEMPO 0213/0215 4SM TSRA OVC040CB
     FM021500 24018G25KT P6SM SCT080 PROB30 0222/0302 4SM TSRA
      BKN050CB
     FM030200 25011KT P6SM SKC
     FM030600 30005KT P6SM SKC=



000
FTUS43 KDVN 021246 AAA
TAFCID
TAF AMD
KCID 021246Z 0213/0312 21009KT P6SM VCTS SCT080CB
     FM021500 24018G25KT P6SM SCT080 PROB30 0222/0302 4SM TSRA
      BKN050CB
     FM030200 25011KT P6SM SKC
     FM030600 30005KT P6SM SKC=



000
FTUS43 KDVN 021246 AAA
TAFCID
TAF AMD
KCID 021246Z 0213/0312 21009KT P6SM VCTS SCT080CB
     FM021500 24018G25KT P6SM SCT080 PROB30 0222/0302 4SM TSRA
      BKN050CB
     FM030200 25011KT P6SM SKC
     FM030600 30005KT P6SM SKC=



000
FTUS43 KDVN 021120
TAFDBQ
TAF
KDBQ 021120Z 0212/0312 22011KT P6SM SCT080
     FM021400 24020G27KT P6SM SCT080 PROB30 0222/0302 4SM TSRA
      BKN050CB
     FM030200 24011KT P6SM SKC
     FM030600 30005KT P6SM SKC=



000
FTUS43 KDVN 021120
TAFMLI
TAF
KMLI 021120Z 0212/0312 22008KT P6SM SCT080
     FM021430 24011G20KT P6SM VCTS SCT080CB
     FM021700 24015G24KT P6SM FEW080
     FM030000 23011KT P6SM SCT050 PROB30 0300/0304 4SM TSRA BKN050CB
     FM030700 30005KT P6SM SKC=



000
FTUS43 KDVN 021120
TAFCID
TAF
KCID 021120Z 0212/0312 21009KT P6SM SCT080
     FM021500 24018G25KT P6SM SCT080 PROB30 0222/0302 4SM TSRA
      BKN050CB
     FM030200 25011KT P6SM SKC
     FM030600 30005KT P6SM SKC=



000
FTUS43 KDVN 021120
TAFCID
TAF
KCID 021120Z 0212/0312 21009KT P6SM SCT080
     FM021500 24018G25KT P6SM SCT080 PROB30 0222/0302 4SM TSRA
      BKN050CB
     FM030200 25011KT P6SM SKC
     FM030600 30005KT P6SM SKC=



000
FTUS43 KDVN 021120
TAFBRL
TAF
KBRL 021120Z 0212/0312 21007KT P6SM FEW130
     FM021400 23012G20KT P6SM VCTS BKN080CB
     FM021700 23015G25KT P6SM FEW080
     FM030000 22010KT P6SM SCT050 PROB30 0300/0304 4SM TSRA BKN050CB
     FM030800 32005KT P6SM SKC=



000
FTUS43 KDVN 021120
TAFBRL
TAF
KBRL 021120Z 0212/0312 21007KT P6SM FEW130
     FM021400 23012G20KT P6SM VCTS BKN080CB
     FM021700 23015G25KT P6SM FEW080
     FM030000 22010KT P6SM SCT050 PROB30 0300/0304 4SM TSRA BKN050CB
     FM030800 32005KT P6SM SKC=



000
FTUS43 KDVN 021120
TAFDBQ
TAF
KDBQ 021120Z 0212/0312 22011KT P6SM SCT080
     FM021400 24020G27KT P6SM SCT080 PROB30 0222/0302 4SM TSRA
      BKN050CB
     FM030200 24011KT P6SM SKC
     FM030600 30005KT P6SM SKC=



000
FTUS43 KDVN 021120
TAFMLI
TAF
KMLI 021120Z 0212/0312 22008KT P6SM SCT080
     FM021430 24011G20KT P6SM VCTS SCT080CB
     FM021700 24015G24KT P6SM FEW080
     FM030000 23011KT P6SM SCT050 PROB30 0300/0304 4SM TSRA BKN050CB
     FM030700 30005KT P6SM SKC=



    US Dept of Commerce
    National Oceanic and Atmospheric Administration
    National Weather Service
    1325 East West Highway
    Silver Spring, MD 20910
    Page Author: NWS Internet Services Team
Disclaimer
Information Quality
Credits
Glossary
Privacy Policy
Freedom of Information Act (FOIA)
About Us
Career Opportunities